createdAt,value
2023-07-25T10:38:44.479Z,22.3
2023-07-25T10:44:19.859Z,22.6
2023-07-25T10:49:55.290Z,22.5
2023-07-25T10:55:31.741Z,22.5
2023-07-25T11:01:07.883Z,23.1
2023-07-25T11:06:45.105Z,23.9
2023-07-25T11:12:20.859Z,22.5
2023-07-25T11:17:56.404Z,22.6
2023-07-25T11:23:32.758Z,22.2
2023-07-25T11:29:08.141Z,21.3
2023-07-25T11:34:43.823Z,22.4
2023-07-25T11:40:21.076Z,21.9
2023-07-25T11:45:57.815Z,21.5
2023-07-25T11:51:34.375Z,22.9
2023-07-25T11:57:13.541Z,23.8
2023-07-25T12:02:50.792Z,26.8
2023-07-25T12:08:27.462Z,26.1
2023-07-25T12:14:04.087Z,25
2023-07-25T12:19:39.100Z,24.8
2023-07-25T12:25:14.423Z,25.3
2023-07-25T12:30:51.120Z,25.8
2023-07-25T12:36:27.015Z,27.2
2023-07-25T12:42:02.586Z,26.5
2023-07-25T12:47:44.768Z,26.8
2023-07-25T12:53:20.948Z,27.7
2023-07-25T12:58:56.185Z,27
2023-07-25T13:04:32.926Z,25.3
2023-07-25T13:10:10.530Z,25.7
2023-07-25T13:15:46.903Z,27.3
2023-07-25T13:21:23.079Z,28.4
2023-07-25T13:27:00.228Z,31.8
2023-07-25T13:32:36.785Z,36.6
2023-07-25T13:38:13.615Z,35.8
2023-07-25T13:43:50.316Z,38.7
2023-07-25T13:49:25.736Z,30.6
2023-07-25T13:55:00.493Z,26.2
2023-07-25T14:00:36.439Z,24.7
2023-07-25T14:06:12.802Z,23.6
2023-07-25T14:11:48.578Z,22.2
2023-07-25T14:17:25.311Z,21.7
2023-07-25T14:23:01.758Z,21.6
2023-07-25T14:28:37.292Z,21
2023-07-25T14:34:14.464Z,22
2023-07-25T14:39:50.979Z,23.2
2023-07-25T14:45:26.759Z,24.3
2023-07-25T14:51:03.780Z,24.1
2023-07-25T14:56:39.950Z,23.7
2023-07-25T15:02:18.352Z,24
2023-07-25T15:07:54.304Z,24.2
2023-07-25T15:13:30.767Z,23.6
2023-07-25T15:19:06.541Z,23
2023-07-25T15:24:41.990Z,23.5
2023-07-25T15:30:18.310Z,23.9
2023-07-25T15:35:54.682Z,23.7
2023-07-25T15:41:30.046Z,22.7
2023-07-25T15:47:09.666Z,22.6
2023-07-25T15:52:44.918Z,23.2
2023-07-25T15:58:20.585Z,23.9
2023-07-25T16:03:55.948Z,23.1
2023-07-25T16:09:32.172Z,22.3
2023-07-25T16:15:07.949Z,22
2023-07-25T16:20:44.676Z,21.6
2023-07-25T16:26:20.854Z,22.3
2023-07-25T16:31:56.587Z,22.5
2023-07-25T16:37:33.316Z,27.2
2023-07-25T16:43:08.952Z,29.8
2023-07-25T16:48:44.314Z,24.8
2023-07-25T16:54:20.309Z,23.5
2023-07-25T16:59:56.893Z,22.3
2023-07-25T17:05:32.326Z,22.7
2023-07-25T17:11:08.384Z,23.1
2023-07-25T17:16:43.467Z,23.1
2023-07-25T17:22:19.367Z,23.5
2023-07-25T17:27:55.768Z,23.9
2023-07-25T17:33:32.185Z,22.7
2023-07-25T17:39:07.231Z,22.4
2023-07-25T17:44:43.190Z,21.5
2023-07-25T17:50:18.594Z,20.9
2023-07-25T17:55:54.167Z,21
2023-07-25T18:01:31.069Z,20.6
2023-07-25T18:07:10.338Z,19.9
2023-07-25T18:12:45.845Z,19.6
2023-07-25T18:18:21.598Z,19.3
2023-07-25T18:23:57.673Z,19.2
2023-07-25T18:29:33.456Z,18.9
2023-07-25T18:35:10.305Z,18.7
2023-07-25T18:40:46.071Z,18.2
2023-07-25T18:46:22.021Z,17.8
2023-07-25T18:51:57.937Z,17.8
2023-07-25T18:57:34.213Z,17.7
2023-07-25T19:03:09.765Z,17.7
2023-07-25T19:08:47.406Z,17.4
2023-07-25T19:14:23.182Z,17.3
2023-07-25T19:19:59.216Z,17.1
2023-07-25T19:25:35.219Z,16.7
2023-07-25T19:31:10.788Z,16.4
2023-07-25T19:36:46.761Z,16.2
2023-07-25T19:42:22.827Z,15.9
2023-07-25T19:47:58.363Z,15.9
2023-07-25T19:53:34.410Z,15.8
2023-07-25T19:59:10.477Z,15.9
2023-07-25T20:04:46.534Z,15.9
2023-07-25T20:10:21.766Z,15.8
2023-07-25T20:15:58.869Z,15.8
2023-07-25T20:21:34.268Z,15.6
2023-07-25T20:27:10.896Z,15.4
2023-07-25T20:32:47.487Z,15.2
2023-07-25T20:38:24.055Z,15.2
2023-07-25T20:44:00.092Z,15.4
2023-07-25T20:49:36.893Z,15.4
2023-07-25T20:55:12.728Z,15.4
2023-07-25T21:00:48.104Z,15.3
2023-07-25T21:06:24.219Z,15.4
2023-07-25T21:12:00.664Z,15.9
2023-07-25T21:17:36.735Z,15.8
2023-07-25T21:23:13.389Z,15.8
2023-07-25T21:28:49.688Z,15.8
2023-07-25T21:34:26.095Z,15.7
2023-07-25T21:40:01.965Z,15.7
2023-07-25T21:45:37.616Z,15.7
2023-07-25T21:51:12.677Z,15.7
2023-07-25T21:56:50.288Z,15.6
2023-07-25T22:02:29.253Z,15.6
2023-07-25T22:08:06.414Z,15.5
2023-07-25T22:13:42.786Z,15.3
2023-07-25T22:19:18.005Z,15.2
2023-07-25T22:24:53.140Z,15.1
2023-07-25T22:30:29.061Z,15.1
2023-07-25T22:36:03.934Z,15
2023-07-25T22:41:39.331Z,15.1
2023-07-25T22:47:14.816Z,15.1
2023-07-25T22:52:49.480Z,15.1
2023-07-25T22:58:25.187Z,15.2
2023-07-25T23:04:00.288Z,15.2
2023-07-25T23:09:35.676Z,15.1
2023-07-25T23:15:10.513Z,15.1
2023-07-25T23:20:46.508Z,15
2023-07-25T23:26:22.236Z,15
2023-07-25T23:31:57.567Z,15
2023-07-25T23:37:33.778Z,15
2023-07-25T23:43:09.487Z,15.1
2023-07-25T23:48:45.986Z,15.2
2023-07-25T23:54:22.514Z,15.2
2023-07-25T23:59:59.011Z,15.1
